sensor_id;sensor_type;location;lat;lon;timestamp;pressure;altitude;pressure_sealevel;temperature
70123;BMP280;57489;37.404;24.920;2023-06-01T00:01:34;100066.66;;;25.31
70123;BMP280;57489;37.404;24.920;2023-06-01T00:06:35;100072.75;;;25.28
70123;BMP280;57489;37.404;24.920;2023-06-01T00:11:36;100057.81;;;25.31
70123;BMP280;57489;37.404;24.920;2023-06-01T00:16:36;100062.84;;;25.32
70123;BMP280;57489;37.404;24.920;2023-06-01T00:21:37;100058.19;;;25.29
70123;BMP280;57489;37.404;24.920;2023-06-01T00:26:37;100065.47;;;25.29
70123;BMP280;57489;37.404;24.920;2023-06-01T00:31:37;100068.88;;;25.26
70123;BMP280;57489;37.404;24.920;2023-06-01T00:36:38;100078.09;;;25.28
70123;BMP280;57489;37.404;24.920;2023-06-01T00:41:38;100068.47;;;25.24
70123;BMP280;57489;37.404;24.920;2023-06-01T00:46:39;100071.56;;;25.26
70123;BMP280;57489;37.404;24.920;2023-06-01T00:51:40;100079.63;;;25.26
70123;BMP280;57489;37.404;24.920;2023-06-01T00:56:40;100086.47;;;25.23
70123;BMP280;57489;37.404;24.920;2023-06-01T01:01:41;100091.09;;;25.23
70123;BMP280;57489;37.404;24.920;2023-06-01T01:07:12;100092.63;;;25.24
70123;BMP280;57489;37.404;24.920;2023-06-01T01:12:26;100101.84;;;25.23
70123;BMP280;57489;37.404;24.920;2023-06-01T01:17:51;100101.09;;;25.26
70123;BMP280;57489;37.404;24.920;2023-06-01T01:23:20;100104.16;;;25.24
70123;BMP280;57489;37.404;24.920;2023-06-01T01:28:35;100121.03;;;25.25
70123;BMP280;57489;37.404;24.920;2023-06-01T01:33:38;100134.47;;;25.25
70123;BMP280;57489;37.404;24.920;2023-06-01T01:38:39;100134.06;;;25.23
70123;BMP280;57489;37.404;24.920;2023-06-01T01:43:40;100135.63;;;25.24
70123;BMP280;57489;37.404;24.920;2023-06-01T01:49:09;100117.09;;;25.19
70123;BMP280;57489;37.404;24.920;2023-06-01T01:54:12;100117.94;;;25.23
70123;BMP280;57489;37.404;24.920;2023-06-01T01:59:14;100116.72;;;25.20
70123;BMP280;57489;37.404;24.920;2023-06-01T02:04:15;100124.03;;;25.20
70123;BMP280;57489;37.404;24.920;2023-06-01T02:09:16;100113.28;;;25.20
70123;BMP280;57489;37.404;24.920;2023-06-01T02:14:16;100107.16;;;25.19
70123;BMP280;57489;37.404;24.920;2023-06-01T02:19:17;100100.97;;;25.19
70123;BMP280;57489;37.404;24.920;2023-06-01T02:24:17;100107.91;;;25.20
70123;BMP280;57489;37.404;24.920;2023-06-01T02:29:18;100122.47;;;25.19
70123;BMP280;57489;37.404;24.920;2023-06-01T02:34:19;100122.47;;;25.19
70123;BMP280;57489;37.404;24.920;2023-06-01T02:39:19;100114.00;;;25.17
70123;BMP280;57489;37.404;24.920;2023-06-01T02:44:20;100118.97;;;25.15
70123;BMP280;57489;37.404;24.920;2023-06-01T02:49:20;100114.69;;;25.14
70123;BMP280;57489;37.404;24.920;2023-06-01T02:54:21;100107.81;;;25.13
70123;BMP280;57489;37.404;24.920;2023-06-01T02:59:21;100111.63;;;25.12
70123;BMP280;57489;37.404;24.920;2023-06-01T03:04:22;100117.69;;;25.08
70123;BMP280;57489;37.404;24.920;2023-06-01T03:09:22;100123.06;;;25.08
70123;BMP280;57489;37.404;24.920;2023-06-01T03:14:22;100120.38;;;25.08
70123;BMP280;57489;37.404;24.920;2023-06-01T03:19:23;100127.75;;;25.12
70123;BMP280;57489;37.404;24.920;2023-06-01T03:24:23;100129.63;;;25.11
70123;BMP280;57489;37.404;24.920;2023-06-01T03:29:24;100133.13;;;25.12
70123;BMP280;57489;37.404;24.920;2023-06-01T03:34:25;100125.44;;;25.14
70123;BMP280;57489;37.404;24.920;2023-06-01T03:39:25;100128.97;;;25.18
70123;BMP280;57489;37.404;24.920;2023-06-01T03:44:26;100139.38;;;25.19
70123;BMP280;57489;37.404;24.920;2023-06-01T03:49:26;100130.53;;;25.19
70123;BMP280;57489;37.404;24.920;2023-06-01T03:54:27;100131.72;;;25.21
70123;BMP280;57489;37.404;24.920;2023-06-01T03:59:27;100137.94;;;25.25
70123;BMP280;57489;37.404;24.920;2023-06-01T04:04:28;100125.69;;;25.28
70123;BMP280;57489;37.404;24.920;2023-06-01T04:09:31;100123.53;;;25.37
70123;BMP280;57489;37.404;24.920;2023-06-01T04:14:32;100120.97;;;25.44
70123;BMP280;57489;37.404;24.920;2023-06-01T04:19:34;100114.84;;;25.47
70123;BMP280;57489;37.404;24.920;2023-06-01T04:24:34;100112.28;;;25.54
70123;BMP280;57489;37.404;24.920;2023-06-01T04:29:35;100106.19;;;25.57
70123;BMP280;57489;37.404;24.920;2023-06-01T04:34:35;100113.56;;;25.60
70123;BMP280;57489;37.404;24.920;2023-06-01T04:39:36;100105.50;;;25.60
70123;BMP280;57489;37.404;24.920;2023-06-01T04:44:36;100101.75;;;25.69
70123;BMP280;57489;37.404;24.920;2023-06-01T04:49:36;100104.88;;;25.71
70123;BMP280;57489;37.404;24.920;2023-06-01T04:54:37;100108.88;;;25.84
70123;BMP280;57489;37.404;24.920;2023-06-01T04:59:38;100102.00;;;25.86
70123;BMP280;57489;37.404;24.920;2023-06-01T05:04:40;100111.97;;;25.86
70123;BMP280;57489;37.404;24.920;2023-06-01T05:09:40;100120.88;;;25.90
70123;BMP280;57489;37.404;24.920;2023-06-01T05:14:40;100115.16;;;25.95
70123;BMP280;57489;37.404;24.920;2023-06-01T05:19:41;100114.88;;;26.00
70123;BMP280;57489;37.404;24.920;2023-06-01T05:24:41;100115.69;;;26.04
70123;BMP280;57489;37.404;24.920;2023-06-01T05:29:42;100128.81;;;26.09
70123;BMP280;57489;37.404;24.920;2023-06-01T05:34:43;100133.91;;;26.18
70123;BMP280;57489;37.404;24.920;2023-06-01T05:39:43;100130.22;;;26.30
70123;BMP280;57489;37.404;24.920;2023-06-01T05:44:44;100133.41;;;26.39
70123;BMP280;57489;37.404;24.920;2023-06-01T05:49:44;100126.56;;;26.45
70123;BMP280;57489;37.404;24.920;2023-06-01T05:54:45;100134.31;;;26.50
70123;BMP280;57489;37.404;24.920;2023-06-01T05:59:45;100141.66;;;26.53
70123;BMP280;57489;37.404;24.920;2023-06-01T06:04:46;100135.13;;;26.54
70123;BMP280;57489;37.404;24.920;2023-06-01T06:09:46;100142.84;;;26.59
70123;BMP280;57489;37.404;24.920;2023-06-01T06:14:47;100142.94;;;26.66
70123;BMP280;57489;37.404;24.920;2023-06-01T06:19:47;100154.16;;;26.72
70123;BMP280;57489;37.404;24.920;2023-06-01T06:24:48;100153.84;;;26.81
70123;BMP280;57489;37.404;24.920;2023-06-01T06:29:48;100149.97;;;26.78
70123;BMP280;57489;37.404;24.920;2023-06-01T06:34:49;100146.16;;;26.79
70123;BMP280;57489;37.404;24.920;2023-06-01T06:39:49;100137.34;;;26.82
70123;BMP280;57489;37.404;24.920;2023-06-01T06:44:50;100145.44;;;26.86
70123;BMP280;57489;37.404;24.920;2023-06-01T06:49:50;100144.31;;;26.87
70123;BMP280;57489;37.404;24.920;2023-06-01T06:54:51;100147.06;;;26.94
70123;BMP280;57489;37.404;24.920;2023-06-01T06:59:51;100146.31;;;26.97
70123;BMP280;57489;37.404;24.920;2023-06-01T07:04:52;100144.09;;;27.06
70123;BMP280;57489;37.404;24.920;2023-06-01T07:09:52;100151.09;;;27.14
70123;BMP280;57489;37.404;24.920;2023-06-01T07:14:53;100150.31;;;27.17
70123;BMP280;57489;37.404;24.920;2023-06-01T07:19:53;100144.94;;;27.17
70123;BMP280;57489;37.404;24.920;2023-06-01T07:24:54;100141.19;;;27.25
70123;BMP280;57489;37.404;24.920;2023-06-01T07:29:54;100141.19;;;27.25
70123;BMP280;57489;37.404;24.920;2023-06-01T07:34:54;100136.53;;;27.26
70123;BMP280;57489;37.404;24.920;2023-06-01T07:39:55;100144.31;;;27.34
70123;BMP280;57489;37.404;24.920;2023-06-01T07:44:55;100143.13;;;27.28
70123;BMP280;57489;37.404;24.920;2023-06-01T07:49:56;100139.56;;;27.17
70123;BMP280;57489;37.404;24.920;2023-06-01T07:54:56;100139.25;;;27.29
70123;BMP280;57489;37.404;24.920;2023-06-01T07:59:57;100128.91;;;27.31
70123;BMP280;57489;37.404;24.920;2023-06-01T08:04:57;100134.31;;;27.39
70123;BMP280;57489;37.404;24.920;2023-06-01T08:09:58;100131.69;;;27.46
70123;BMP280;57489;37.404;24.920;2023-06-01T08:14:58;100131.69;;;27.46
70123;BMP280;57489;37.404;24.920;2023-06-01T08:19:59;100127.56;;;27.59
70123;BMP280;57489;37.404;24.920;2023-06-01T08:24:59;100120.69;;;27.69
70123;BMP280;57489;37.404;24.920;2023-06-01T08:30:00;100099.94;;;27.76
70123;BMP280;57489;37.404;24.920;2023-06-01T08:35:00;100112.59;;;27.76
70123;BMP280;57489;37.404;24.920;2023-06-01T08:40:01;100110.00;;;27.93
70123;BMP280;57489;37.404;24.920;2023-06-01T08:45:04;100097.69;;;27.96
70123;BMP280;57489;37.404;24.920;2023-06-01T08:50:05;100092.75;;;28.16
70123;BMP280;57489;37.404;24.920;2023-06-01T08:55:06;100103.13;;;28.14
70123;BMP280;57489;37.404;24.920;2023-06-01T09:00:08;100103.53;;;28.12
70123;BMP280;57489;37.404;24.920;2023-06-01T09:05:09;100092.66;;;27.94
70123;BMP280;57489;37.404;24.920;2023-06-01T09:10:10;100097.31;;;27.98
70123;BMP280;57489;37.404;24.920;2023-06-01T09:15:12;100091.59;;;28.10
70123;BMP280;57489;37.404;24.920;2023-06-01T09:20:14;100099.31;;;28.22
70123;BMP280;57489;37.404;24.920;2023-06-01T09:25:15;100098.16;;;28.19
70123;BMP280;57489;37.404;24.920;2023-06-01T09:30:17;100108.09;;;28.05
70123;BMP280;57489;37.404;24.920;2023-06-01T09:35:44;100101.59;;;28.13
70123;BMP280;57489;37.404;24.920;2023-06-01T09:40:55;100107.75;;;28.17
70123;BMP280;57489;37.404;24.920;2023-06-01T09:46:10;100116.28;;;28.26
70123;BMP280;57489;37.404;24.920;2023-06-01T09:51:22;100104.69;;;28.18
70123;BMP280;57489;37.404;24.920;2023-06-01T09:56:23;100099.31;;;28.26
70123;BMP280;57489;37.404;24.920;2023-06-01T10:01:23;100093.22;;;28.46
70123;BMP280;57489;37.404;24.920;2023-06-01T10:06:24;100100.16;;;28.44
70123;BMP280;57489;37.404;24.920;2023-06-01T10:11:25;100093.59;;;28.48
70123;BMP280;57489;37.404;24.920;2023-06-01T10:16:26;100098.97;;;28.34
70123;BMP280;57489;37.404;24.920;2023-06-01T10:21:27;100101.69;;;28.41
70123;BMP280;57489;37.404;24.920;2023-06-01T10:26:28;100091.66;;;28.52
70123;BMP280;57489;37.404;24.920;2023-06-01T10:31:35;100087.78;;;28.32
70123;BMP280;57489;37.404;24.920;2023-06-01T10:41:52;100088.56;;;28.54
70123;BMP280;57489;37.404;24.920;2023-06-01T10:46:52;100075.47;;;28.60
70123;BMP280;57489;37.404;24.920;2023-06-01T10:52:25;100078.97;;;28.71
70123;BMP280;57489;37.404;24.920;2023-06-01T10:57:26;100070.06;;;28.74
70123;BMP280;57489;37.404;24.920;2023-06-01T11:02:26;100081.66;;;28.57
70123;BMP280;57489;37.404;24.920;2023-06-01T11:07:39;100077.78;;;28.65
70123;BMP280;57489;37.404;24.920;2023-06-01T11:13:10;100076.25;;;28.64
70123;BMP280;57489;37.404;24.920;2023-06-01T11:18:46;100076.63;;;28.59
70123;BMP280;57489;37.404;24.920;2023-06-01T11:23:47;100080.09;;;28.56
70123;BMP280;57489;37.404;24.920;2023-06-01T11:28:48;100080.88;;;28.56
70123;BMP280;57489;37.404;24.920;2023-06-01T11:33:50;100073.53;;;28.49
70123;BMP280;57489;37.404;24.920;2023-06-01T11:38:52;100063.88;;;28.56
70123;BMP280;57489;37.404;24.920;2023-06-01T11:43:57;100053.88;;;28.60
70123;BMP280;57489;37.404;24.920;2023-06-01T11:49:01;100044.59;;;28.57
70123;BMP280;57489;37.404;24.920;2023-06-01T11:54:03;100043.03;;;28.42
70123;BMP280;57489;37.404;24.920;2023-06-01T11:59:04;100046.16;;;28.47
70123;BMP280;57489;37.404;24.920;2023-06-01T12:04:05;100042.19;;;27.99
70123;BMP280;57489;37.404;24.920;2023-06-01T12:09:05;100056.44;;;27.88
70123;BMP280;57489;37.404;24.920;2023-06-01T12:14:06;100041.44;;;27.98
70123;BMP280;57489;37.404;24.920;2023-06-01T12:19:10;100049.50;;;27.94
70123;BMP280;57489;37.404;24.920;2023-06-01T12:24:11;100043.69;;;27.92
70123;BMP280;57489;37.404;24.920;2023-06-01T12:29:11;100041.81;;;28.07
70123;BMP280;57489;37.404;24.920;2023-06-01T12:34:15;100034.09;;;28.02
70123;BMP280;57489;37.404;24.920;2023-06-01T12:39:31;100035.25;;;27.90
70123;BMP280;57489;37.404;24.920;2023-06-01T12:44:32;100025.13;;;27.66
70123;BMP280;57489;37.404;24.920;2023-06-01T12:49:33;100016.59;;;27.50
70123;BMP280;57489;37.404;24.920;2023-06-01T12:54:33;100013.50;;;27.55
70123;BMP280;57489;37.404;24.920;2023-06-01T12:59:34;100017.72;;;27.49
70123;BMP280;57489;37.404;24.920;2023-06-01T13:04:34;100013.50;;;27.55
70123;BMP280;57489;37.404;24.920;2023-06-01T13:09:34;99995.88;;;27.75
70123;BMP280;57489;37.404;24.920;2023-06-01T13:14:36;99988.97;;;27.81
70123;BMP280;57489;37.404;24.920;2023-06-01T13:19:36;99986.63;;;27.80
70123;BMP280;57489;37.404;24.920;2023-06-01T13:24:37;99989.75;;;27.82
70123;BMP280;57489;37.404;24.920;2023-06-01T13:29:37;99980.91;;;27.88
70123;BMP280;57489;37.404;24.920;2023-06-01T13:34:37;99977.44;;;27.91
70123;BMP280;57489;37.404;24.920;2023-06-01T13:39:39;99978.97;;;27.78
70123;BMP280;57489;37.404;24.920;2023-06-01T13:44:39;99969.72;;;27.86
70123;BMP280;57489;37.404;24.920;2023-06-01T13:49:40;99964.69;;;27.81
70123;BMP280;57489;37.404;24.920;2023-06-01T13:54:40;99962.75;;;27.71
70123;BMP280;57489;37.404;24.920;2023-06-01T13:59:41;99956.59;;;27.74
70123;BMP280;57489;37.404;24.920;2023-06-01T14:04:41;99950.38;;;27.63
70123;BMP280;57489;37.404;24.920;2023-06-01T14:09:42;99942.72;;;27.72
70123;BMP280;57489;37.404;24.920;2023-06-01T14:14:42;99948.91;;;27.87
70123;BMP280;57489;37.404;24.920;2023-06-01T14:19:43;99958.88;;;27.76
70123;BMP280;57489;37.404;24.920;2023-06-01T14:24:47;99959.69;;;27.76
70123;BMP280;57489;37.404;24.920;2023-06-01T14:29:48;99948.88;;;27.73
70123;BMP280;57489;37.404;24.920;2023-06-01T14:34:48;99939.59;;;27.70
70123;BMP280;57489;37.404;24.920;2023-06-01T14:39:49;99942.75;;;27.79
70123;BMP280;57489;37.404;24.920;2023-06-01T14:44:49;99952.72;;;27.72
70123;BMP280;57489;37.404;24.920;2023-06-01T14:49:50;99947.34;;;27.75
70123;BMP280;57489;37.404;24.920;2023-06-01T14:54:50;99939.63;;;27.67
70123;BMP280;57489;37.404;24.920;2023-06-01T14:59:50;99925.00;;;27.71
70123;BMP280;57489;37.404;24.920;2023-06-01T15:04:51;99939.59;;;27.63
70123;BMP280;57489;37.404;24.920;2023-06-01T15:09:51;99940.78;;;27.73
70123;BMP280;57489;37.404;24.920;2023-06-01T15:14:52;99935.38;;;27.62
70123;BMP280;57489;37.404;24.920;2023-06-01T15:19:52;99932.94;;;27.39
70123;BMP280;57489;37.404;24.920;2023-06-01T15:24:53;99942.41;;;27.01
70123;BMP280;57489;37.404;24.920;2023-06-01T15:29:53;99939.44;;;27.20
70123;BMP280;57489;37.404;24.920;2023-06-01T15:34:54;99923.66;;;27.19
70123;BMP280;57489;37.404;24.920;2023-06-01T15:39:54;99932.13;;;27.21
70123;BMP280;57489;37.404;24.920;2023-06-01T15:44:55;99930.59;;;27.23
70123;BMP280;57489;37.404;24.920;2023-06-01T15:49:55;99931.75;;;27.29
70123;BMP280;57489;37.404;24.920;2023-06-01T15:54:56;99929.47;;;27.31
70123;BMP280;57489;37.404;24.920;2023-06-01T15:59:57;99924.44;;;27.26
70123;BMP280;57489;37.404;24.920;2023-06-01T16:04:57;99919.44;;;27.21
70123;BMP280;57489;37.404;24.920;2023-06-01T16:09:58;99914.72;;;27.07
70123;BMP280;57489;37.404;24.920;2023-06-01T16:14:58;99915.47;;;27.01
70123;BMP280;57489;37.404;24.920;2023-06-01T16:19:59;99913.53;;;26.98
70123;BMP280;57489;37.404;24.920;2023-06-01T16:24:59;99921.66;;;27.05
70123;BMP280;57489;37.404;24.920;2023-06-01T16:30:00;99908.50;;;26.93
70123;BMP280;57489;37.404;24.920;2023-06-01T16:35:00;99915.41;;;26.87
70123;BMP280;57489;37.404;24.920;2023-06-01T16:40:01;99920.75;;;26.83
70123;BMP280;57489;37.404;24.920;2023-06-01T16:45:01;99911.50;;;26.81
70123;BMP280;57489;37.404;24.920;2023-06-01T16:50:02;99905.38;;;26.84
70123;BMP280;57489;37.404;24.920;2023-06-01T16:55:03;99898.41;;;26.75
70123;BMP280;57489;37.404;24.920;2023-06-01T17:00:04;99895.25;;;26.66
70123;BMP280;57489;37.404;24.920;2023-06-01T17:05:05;99900.59;;;26.59
70123;BMP280;57489;37.404;24.920;2023-06-01T17:10:06;99892.88;;;26.54
70123;BMP280;57489;37.404;24.920;2023-06-01T17:15:06;99893.63;;;26.47
70123;BMP280;57489;37.404;24.920;2023-06-01T17:20:07;99888.94;;;26.41
70123;BMP280;57489;37.404;24.920;2023-06-01T17:25:08;99894.72;;;26.43
70123;BMP280;57489;37.404;24.920;2023-06-01T17:30:11;99885.84;;;26.39
70123;BMP280;57489;37.404;24.920;2023-06-01T17:35:12;99894.28;;;26.34
70123;BMP280;57489;37.404;24.920;2023-06-01T17:40:12;99902.41;;;26.41
70123;BMP280;57489;37.404;24.920;2023-06-01T17:45:13;99908.19;;;26.46
70123;BMP280;57489;37.404;24.920;2023-06-01T17:50:13;99906.97;;;26.37
70123;BMP280;57489;37.404;24.920;2023-06-01T17:55:14;99915.78;;;26.34
70123;BMP280;57489;37.404;24.920;2023-06-01T18:00:15;99917.28;;;26.28
70123;BMP280;57489;37.404;24.920;2023-06-01T18:05:15;99920.69;;;26.21
70123;BMP280;57489;37.404;24.920;2023-06-01T18:10:16;99921.44;;;26.21
70123;BMP280;57489;37.404;24.920;2023-06-01T18:15:17;99925.75;;;26.30
70123;BMP280;57489;37.404;24.920;2023-06-01T18:20:17;99941.00;;;26.18
70123;BMP280;57489;37.404;24.920;2023-06-01T18:25:17;99939.78;;;26.12
70123;BMP280;57489;37.404;24.920;2023-06-01T18:30:18;99939.78;;;26.09
70123;BMP280;57489;37.404;24.920;2023-06-01T18:35:18;99934.75;;;26.04
70123;BMP280;57489;37.404;24.920;2023-06-01T18:40:19;99938.97;;;26.08
70123;BMP280;57489;37.404;24.920;2023-06-01T18:45:20;99940.16;;;26.07
70123;BMP280;57489;37.404;24.920;2023-06-01T18:50:23;99952.00;;;26.03
70123;BMP280;57489;37.404;24.920;2023-06-01T18:55:24;99951.66;;;26.04
70123;BMP280;57489;37.404;24.920;2023-06-01T19:00:24;99944.78;;;26.10
70123;BMP280;57489;37.404;24.920;2023-06-01T19:05:25;99938.44;;;26.33
70123;BMP280;57489;37.404;24.920;2023-06-01T19:10:55;99943.03;;;26.32
70123;BMP280;57489;37.404;24.920;2023-06-01T19:15:58;99939.66;;;26.42
70123;BMP280;57489;37.404;24.920;2023-06-01T19:25:59;99942.44;;;26.49
70123;BMP280;57489;37.404;24.920;2023-06-01T19:30:59;99936.69;;;26.47
70123;BMP280;57489;37.404;24.920;2023-06-01T19:35:59;99928.19;;;26.49
70123;BMP280;57489;37.404;24.920;2023-06-01T19:41:00;99932.13;;;26.59
70123;BMP280;57489;37.404;24.920;2023-06-01T19:46:18;99925.94;;;26.51
70123;BMP280;57489;37.404;24.920;2023-06-01T19:51:20;99929.78;;;26.50
70123;BMP280;57489;37.404;24.920;2023-06-01T19:56:38;99930.13;;;26.52
70123;BMP280;57489;37.404;24.920;2023-06-01T20:01:39;99922.06;;;26.52
70123;BMP280;57489;37.404;24.920;2023-06-01T20:06:45;99921.75;;;26.57
70123;BMP280;57489;37.404;24.920;2023-06-01T20:11:54;99916.31;;;26.50
70123;BMP280;57489;37.404;24.920;2023-06-01T20:16:57;99915.91;;;26.48
70123;BMP280;57489;37.404;24.920;2023-06-01T20:21:58;99918.19;;;26.46
70123;BMP280;57489;37.404;24.920;2023-06-01T20:27:00;99915.91;;;26.52
70123;BMP280;57489;37.404;24.920;2023-06-01T20:32:02;99904.75;;;26.49
70123;BMP280;57489;37.404;24.920;2023-06-01T20:37:05;99902.41;;;26.41
70123;BMP280;57489;37.404;24.920;2023-06-01T20:42:06;99887.31;;;26.33
70123;BMP280;57489;37.404;24.920;2023-06-01T20:47:07;99877.31;;;26.30
70123;BMP280;57489;37.404;24.920;2023-06-01T20:52:08;99878.09;;;26.30
70123;BMP280;57489;37.404;24.920;2023-06-01T20:57:09;99881.56;;;26.31
70123;BMP280;57489;37.404;24.920;2023-06-01T21:02:11;99872.28;;;26.25
70123;BMP280;57489;37.404;24.920;2023-06-01T21:07:13;99875.69;;;26.21
70123;BMP280;57489;37.404;24.920;2023-06-01T21:12:14;99872.63;;;26.23
70123;BMP280;57489;37.404;24.920;2023-06-01T21:17:15;99877.22;;;26.19
70123;BMP280;57489;37.404;24.920;2023-06-01T21:22:16;99864.91;;;26.14
70123;BMP280;57489;37.404;24.920;2023-06-01T21:27:16;99868.34;;;26.15
70123;BMP280;57489;37.404;24.920;2023-06-01T21:32:17;99856.78;;;26.11
70123;BMP280;57489;37.404;24.920;2023-06-01T21:37:17;99863.31;;;26.10
70123;BMP280;57489;37.404;24.920;2023-06-01T21:42:18;99859.41;;;26.00
70123;BMP280;57489;37.404;24.920;2023-06-01T21:47:18;99855.56;;;26.01
70123;BMP280;57489;37.404;24.920;2023-06-01T21:52:19;99855.16;;;25.99
70123;BMP280;57489;37.404;24.920;2023-06-01T21:57:19;99855.88;;;25.96
70123;BMP280;57489;37.404;24.920;2023-06-01T22:02:20;99857.03;;;25.95
70123;BMP280;57489;37.404;24.920;2023-06-01T22:07:20;99859.31;;;25.93
70123;BMP280;57489;37.404;24.920;2023-06-01T22:12:21;99870.06;;;25.89
70123;BMP280;57489;37.404;24.920;2023-06-01T22:17:21;99867.38;;;25.89
70123;BMP280;57489;37.404;24.920;2023-06-01T22:22:23;99882.34;;;25.87
70123;BMP280;57489;37.404;24.920;2023-06-01T22:27:24;99870.78;;;25.86
70123;BMP280;57489;37.404;24.920;2023-06-01T22:32:25;99865.78;;;25.85
70123;BMP280;57489;37.404;24.920;2023-06-01T22:37:25;99862.34;;;25.84
70123;BMP280;57489;37.404;24.920;2023-06-01T22:42:26;99858.44;;;25.82
70123;BMP280;57489;37.404;24.920;2023-06-01T22:47:26;99847.69;;;25.82
70123;BMP280;57489;37.404;24.920;2023-06-01T22:52:27;99853.06;;;25.82
70123;BMP280;57489;37.404;24.920;2023-06-01T22:57:29;99844.63;;;25.80
70123;BMP280;57489;37.404;24.920;2023-06-01T23:02:29;99844.63;;;25.80
70123;BMP280;57489;37.404;24.920;2023-06-01T23:07:30;99849.56;;;25.78
70123;BMP280;57489;37.404;24.920;2023-06-01T23:12:30;99863.00;;;25.78
70123;BMP280;57489;37.404;24.920;2023-06-01T23:17:31;99855.72;;;25.78
70123;BMP280;57489;37.404;24.920;2023-06-01T23:22:31;99855.69;;;25.75
70123;BMP280;57489;37.404;24.920;2023-06-01T23:27:32;99839.19;;;25.76
70123;BMP280;57489;37.404;24.920;2023-06-01T23:32:32;99824.59;;;25.74
70123;BMP280;57489;37.404;24.920;2023-06-01T23:37:33;99819.22;;;25.74
70123;BMP280;57489;37.404;24.920;2023-06-01T23:42:33;99819.22;;;25.74
70123;BMP280;57489;37.404;24.920;2023-06-01T23:47:34;99830.72;;;25.71
70123;BMP280;57489;37.404;24.920;2023-06-01T23:52:38;99837.59;;;25.72
70123;BMP280;57489;37.404;24.920;2023-06-01T23:57:38;99845.34;;;25.77
